Cap Aiguades — FMII — position and weather

sailwx.info

Track history (hours):
 
Tides and Currents Weather Stations Pressure Air Temp Water Temp Dewpoint Dewpoint Depression Visibility Wind Speed Wind Dir Waves Ship Positions

Cap Aiguades

Last reported at 2016-Feb-10 07:08 UTC. Time now 2016-Feb-10 10:49 UTC.
Position N 43°07' E 005°56'.

Length 89 m; draft 3.5 m.

Type: Ship. MMSI: 228237800.

Date/timePositionNaut miles runAvg speedWind from/ knotsBaromVisibWave heightAir tempDewpointWater temp
2016-Feb-10 07:08N 43°07' E 005°56'2 3.0
2016-Feb-10 06:32N 43°06' E 005°53'0 0.0
2016-Feb-10 05:32N 43°06' E 005°53'0 0.0
2016-Feb-10 04:32N 43°06' E 005°53'0 0.0
2016-Feb-10 03:32N 43°06' E 005°53'0 0.0
2016-Feb-10 02:32N 43°06' E 005°53'0 0.0
2016-Feb-10 01:32N 43°06' E 005°53'0 0.0
2016-Feb-10 00:32N 43°06' E 005°53'0 0.0
2016-Feb-09 23:32N 43°06' E 005°53'0 0.0
2016-Feb-09 22:32N 43°06' E 005°53'0 0.0
2016-Feb-09 21:32N 43°06' E 005°53'0 0.0
2016-Feb-09 20:31N 43°06' E 005°53'0 0.0
2016-Feb-09 19:32N 43°06' E 005°53'0 0.0
2016-Feb-09 18:32N 43°06' E 005°53'0 0.0
2016-Feb-09 17:32N 43°06' E 005°53'0 0.0
2016-Feb-09 16:32N 43°06' E 005°53'1 0.4
2016-Feb-09 13:24N 43°07' E 005°55'1 0.9
2016-Feb-09 12:32N 43°06' E 005°54'0 0.0
2016-Feb-09 11:32N 43°06' E 005°54'41 5.8
2016-Feb-09 04:28N 43°16' E 004°60'7 7.7
2016-Feb-09 03:32N 43°24' E 004°59'0 0.0
2016-Feb-09 02:29N 43°24' E 004°59'0 0.0
2016-Feb-09 01:29N 43°24' E 004°59'0 0.0
2016-Feb-09 00:32N 43°24' E 004°59'0 0.0
2016-Feb-08 23:29N 43°24' E 004°59'0 0.0
2016-Feb-08 22:32N 43°24' E 004°59'0 0.0
2016-Feb-08 21:32N 43°24' E 004°59'0 0.0
2016-Feb-08 20:29N 43°24' E 004°59'0 0.0
2016-Feb-08 19:26N 43°24' E 004°59'0 0.0
2016-Feb-08 18:32N 43°24' E 004°59'7 1.2
2016-Feb-08 13:04N 43°25' E 004°50'610.2
2016-Feb-08 12:27N 43°23' E 004°59'1 0.6
2016-Feb-08 11:31N 43°24' E 004°59'0 0.0
2016-Feb-08 10:31N 43°24' E 004°59'0 0.0
2016-Feb-08 09:25N 43°24' E 004°59'0 0.0
2016-Feb-08 08:31N 43°24' E 004°59'0 0.0
2016-Feb-08 07:31N 43°24' E 004°59'0 0.0
2016-Feb-08 06:31N 43°24' E 004°59'0 0.0
2016-Feb-08 05:31N 43°24' E 004°59'0 0.0
2016-Feb-08 04:31N 43°24' E 004°59'0 0.0
2016-Feb-08 03:31N 43°24' E 004°59'0 0.0
2016-Feb-08 02:31N 43°24' E 004°59'0 0.0
2016-Feb-08 01:31N 43°24' E 004°59'0 0.0
2016-Feb-08 00:31N 43°24' E 004°59'0 0.0
2016-Feb-07 23:31N 43°24' E 004°59'6 0.6
2016-Feb-07 12:32N 43°25' E 004°51'6 6.1
2016-Feb-07 11:30N 43°24' E 004°59'0 0.0
2016-Feb-07 10:33N 43°24' E 004°59'0 0.0
2016-Feb-07 09:33N 43°24' E 004°59'0 0.0
2016-Feb-07 08:33N 43°24' E 004°59'0 0.0
2016-Feb-07 07:33N 43°24' E 004°59'0 0.0
2016-Feb-07 06:33N 43°24' E 004°59'0 0.0
2016-Feb-07 05:33N 43°24' E 004°59'0 0.0
2016-Feb-07 04:33N 43°24' E 004°59'0 0.0
2016-Feb-07 03:33N 43°24' E 004°59'6 4.2
2016-Feb-07 02:10N 43°24' E 004°51'1 0.1
2016-Feb-06 16:08N 43°25' E 004°51'6 9.7
2016-Feb-06 15:29N 43°24' E 004°59'0 0.4
2016-Feb-06 14:33N 43°24' E 004°60'0 0.0
2016-Feb-06 13:33N 43°24' E 004°60'0 0.0
2016-Feb-06 12:33N 43°24' E 004°60'0 0.0
2016-Feb-06 11:33N 43°24' E 004°60'0 0.0
2016-Feb-06 10:33N 43°24' E 004°60'0 0.0
2016-Feb-06 09:33N 43°24' E 004°60'0 0.0
2016-Feb-06 08:33N 43°24' E 004°60'1 0.8
2016-Feb-06 07:32N 43°23' E 004°59'1 0.0
2016-Feb-05 19:30N 43°24' E 004°59'0 0.0
2016-Feb-05 18:33N 43°24' E 004°59'0 0.0
2016-Feb-05 17:33N 43°24' E 004°59'0 0.0
2016-Feb-05 16:33N 43°24' E 004°59'0 0.0
2016-Feb-05 15:30N 43°24' E 004°59'0 0.0
2016-Feb-05 14:30N 43°24' E 004°59'0 0.0
2016-Feb-05 13:30N 43°24' E 004°59'0 0.0
2016-Feb-05 12:33N 43°24' E 004°59'0 0.0
2016-Feb-05 11:33N 43°24' E 004°59'1 0.6
2016-Feb-05 10:28N 43°24' E 004°59'0 0.0
2016-Feb-05 09:31N 43°24' E 004°59'0 0.0
2016-Feb-05 08:31N 43°24' E 004°59'0 0.0
2016-Feb-05 07:31N 43°24' E 004°59'0 0.0
2016-Feb-05 06:31N 43°24' E 004°59'0 0.0
2016-Feb-05 05:31N 43°24' E 004°59'0 0.0
2016-Feb-05 04:31N 43°24' E 004°59'0 0.0
2016-Feb-05 03:25N 43°24' E 004°59'0 0.0
2016-Feb-05 02:31N 43°24' E 004°59'0 0.0
2016-Feb-05 01:31N 43°24' E 004°59'0 0.0
2016-Feb-05 00:31N 43°24' E 004°59'0 0.0
2016-Feb-04 23:31N 43°24' E 004°59'0 0.0
2016-Feb-04 22:31N 43°24' E 004°59'0 0.0
2016-Feb-04 21:31N 43°24' E 004°59'0 0.0
2016-Feb-04 20:31N 43°24' E 004°59'0 0.0
2016-Feb-04 19:31N 43°24' E 004°59'0 0.0
2016-Feb-04 18:28N 43°24' E 004°59'0 0.0
2016-Feb-04 17:31N 43°24' E 004°59'0 0.0
2016-Feb-04 16:31N 43°24' E 004°59'0 0.0
2016-Feb-04 15:31N 43°24' E 004°59'6 6.0
2016-Feb-04 14:32N 43°24' E 004°51'0 0.0
2016-Feb-04 08:14N 43°24' E 004°51'6 8.6
2016-Feb-04 07:33N 43°24' E 004°59'0 0.1
2016-Feb-04 06:32N 43°24' E 004°59'0 0.0
2016-Feb-04 05:32N 43°24' E 004°59'0 0.0
2016-Feb-04 04:32N 43°24' E 004°60'0 0.0
2016-Feb-04 03:32N 43°24' E 004°59'0 0.0
2016-Feb-04 02:32N 43°24' E 004°60'0 0.0
2016-Feb-04 01:32N 43°24' E 004°59'0 0.0
2016-Feb-04 00:32N 43°24' E 004°59'0 0.0
2016-Feb-03 23:32N 43°24' E 004°60'0 0.5
2016-Feb-03 22:31N 43°24' E 004°59'0 0.0
2016-Feb-03 21:31N 43°24' E 004°59'0 0.0
2016-Feb-03 20:31N 43°24' E 004°59'0 0.0
2016-Feb-03 19:31N 43°24' E 004°59'0 0.0
2016-Feb-03 18:31N 43°24' E 004°59'0 0.0
2016-Feb-03 17:31N 43°24' E 004°59'0 0.0
2016-Feb-03 16:31N 43°24' E 004°59'7 2.2
2016-Feb-03 13:32N 43°25' E 004°50'7 0.8
2016-Feb-03 05:32N 43°24' E 004°59'0 0.0
2016-Feb-03 04:32N 43°24' E 004°59'0 0.0
2016-Feb-03 03:29N 43°24' E 004°59'0 0.0
2016-Feb-03 02:32N 43°24' E 004°59'0 0.0
2016-Feb-03 01:29N 43°24' E 004°59'0 0.0
2016-Feb-03 00:32N 43°24' E 004°59'0 0.0
2016-Feb-02 23:29N 43°24' E 004°59'0 0.0
2016-Feb-02 22:11N 43°24' E 004°59'0 0.0
2016-Feb-02 21:29N 43°24' E 004°59'0 0.0
2016-Feb-02 20:32N 43°24' E 004°59'0 0.0
2016-Feb-02 19:11N 43°24' E 004°59'0 0.0
2016-Feb-02 18:23N 43°24' E 004°59'0 0.5
2016-Feb-02 17:31N 43°24' E 004°59'0 0.0
2016-Feb-02 16:28N 43°24' E 004°59'0 0.0
2016-Feb-02 15:31N 43°24' E 004°59'0 0.0
2016-Feb-02 14:31N 43°24' E 004°59'0 0.0
2016-Feb-02 13:31N 43°24' E 004°59'0 0.0
2016-Feb-02 12:31N 43°24' E 004°59'0 0.0
2016-Feb-02 11:28N 43°24' E 004°59'0 0.0
2016-Feb-02 10:19N 43°24' E 004°59'0 0.0
2016-Feb-02 09:31N 43°24' E 004°59'0 0.0
2016-Feb-02 08:31N 43°24' E 004°59'0 0.0
2016-Feb-02 07:28N 43°24' E 004°59'0 0.0
2016-Feb-02 06:31N 43°24' E 004°59'0 0.0
2016-Feb-02 05:31N 43°24' E 004°59'0 0.0
2016-Feb-02 04:31N 43°24' E 004°59'0 0.0
2016-Feb-02 03:28N 43°24' E 004°59'0 0.0
2016-Feb-02 02:31N 43°24' E 004°59'0 0.0
2016-Feb-02 01:31N 43°24' E 004°59'0 0.0
2016-Feb-02 00:31N 43°24' E 004°59'0 0.0
2016-Feb-01 23:31N 43°24' E 004°59'0 0.0
2016-Feb-01 22:31N 43°24' E 004°59'0 0.0
2016-Feb-01 21:31N 43°24' E 004°59'0 0.0
2016-Feb-01 20:31N 43°24' E 004°59'0 0.0
2016-Feb-01 19:31N 43°24' E 004°59'0 0.0
2016-Feb-01 18:28N 43°24' E 004°59'0 0.0
2016-Feb-01 17:31N 43°24' E 004°59'0 0.0
2016-Feb-01 16:28N 43°24' E 004°59'0 0.0
2016-Feb-01 15:31N 43°24' E 004°59'0 0.0
2016-Feb-01 14:31N 43°24' E 004°59'0 0.0
2016-Feb-01 13:28N 43°24' E 004°59'0 0.0
2016-Feb-01 12:31N 43°24' E 004°59'0 0.0
2016-Feb-01 11:25N 43°24' E 004°59'0 0.0
2016-Feb-01 10:31N 43°24' E 004°59'0 0.0
2016-Feb-01 09:31N 43°24' E 004°59'0 0.0
2016-Feb-01 08:31N 43°24' E 004°59'0 0.0
2016-Feb-01 07:31N 43°24' E 004°59'0 0.0
2016-Feb-01 06:31N 43°24' E 004°59'0 0.0
2016-Feb-01 05:31N 43°24' E 004°59'0 0.0
2016-Feb-01 04:31N 43°24' E 004°59'0 0.0
2016-Feb-01 03:31N 43°24' E 004°59'0 0.0
2016-Feb-01 02:31N 43°24' E 004°59'0 0.0
2016-Feb-01 01:31N 43°24' E 004°59'0 0.0
2016-Feb-01 00:31N 43°24' E 004°59'0 0.0
2016-Jan-31 23:28N 43°24' E 004°59'0 0.0
2016-Jan-31 22:31N 43°24' E 004°59'0 0.0
2016-Jan-31 21:31N 43°24' E 004°59'0 0.0
2016-Jan-31 20:31N 43°24' E 004°59'0 0.0
2016-Jan-31 19:31N 43°24' E 004°59'0 0.0
2016-Jan-31 18:31N 43°24' E 004°59'0 0.0
2016-Jan-31 17:31N 43°24' E 004°59'0 0.0
2016-Jan-31 16:28N 43°24' E 004°59'0 0.0
2016-Jan-31 15:31N 43°24' E 004°59'0 0.0
2016-Jan-31 14:31N 43°24' E 004°59'1 1.2
2016-Jan-31 13:31N 43°23' E 004°59'6 1.2
2016-Jan-31 08:26N 43°25' E 004°51'6 6.9
2016-Jan-31 07:31N 43°24' E 004°59'  
Track history (hours):
 
Tides and Currents Weather Stations Pressure Air Temp Water Temp Dewpoint Dewpoint Depression Visibility Wind Speed Wind Dir Waves Ship Positions

Cap Aiguades

Last reported at 2016-Feb-10 07:08 UTC. Time now 2016-Feb-10 10:49 UTC.
Position N 43°07' E 005°56'.

Length 89 m; draft 3.5 m.

Type: Ship. MMSI: 228237800.

Date/timePositionNaut miles runAvg speedWind from/ knotsBaromVisibWave heightAir tempDewpointWater temp
2016-Feb-10 07:08N 43°07' E 005°56'2 3.0
2016-Feb-10 06:32N 43°06' E 005°53'0 0.0
2016-Feb-10 05:32N 43°06' E 005°53'0 0.0
2016-Feb-10 04:32N 43°06' E 005°53'0 0.0
2016-Feb-10 03:32N 43°06' E 005°53'0 0.0
2016-Feb-10 02:32N 43°06' E 005°53'0 0.0
2016-Feb-10 01:32N 43°06' E 005°53'0 0.0
2016-Feb-10 00:32N 43°06' E 005°53'0 0.0
2016-Feb-09 23:32N 43°06' E 005°53'0 0.0
2016-Feb-09 22:32N 43°06' E 005°53'0 0.0
2016-Feb-09 21:32N 43°06' E 005°53'0 0.0
2016-Feb-09 20:31N 43°06' E 005°53'0 0.0
2016-Feb-09 19:32N 43°06' E 005°53'0 0.0
2016-Feb-09 18:32N 43°06' E 005°53'0 0.0
2016-Feb-09 17:32N 43°06' E 005°53'0 0.0
2016-Feb-09 16:32N 43°06' E 005°53'1 0.4
2016-Feb-09 13:24N 43°07' E 005°55'1 0.9
2016-Feb-09 12:32N 43°06' E 005°54'0 0.0
2016-Feb-09 11:32N 43°06' E 005°54'41 5.8
2016-Feb-09 04:28N 43°16' E 004°60'7 7.7
2016-Feb-09 03:32N 43°24' E 004°59'0 0.0
2016-Feb-09 02:29N 43°24' E 004°59'0 0.0
2016-Feb-09 01:29N 43°24' E 004°59'0 0.0
2016-Feb-09 00:32N 43°24' E 004°59'0 0.0
2016-Feb-08 23:29N 43°24' E 004°59'0 0.0
2016-Feb-08 22:32N 43°24' E 004°59'0 0.0
2016-Feb-08 21:32N 43°24' E 004°59'0 0.0
2016-Feb-08 20:29N 43°24' E 004°59'0 0.0
2016-Feb-08 19:26N 43°24' E 004°59'0 0.0
2016-Feb-08 18:32N 43°24' E 004°59'7 1.2
2016-Feb-08 13:04N 43°25' E 004°50'610.2
2016-Feb-08 12:27N 43°23' E 004°59'1 0.6
2016-Feb-08 11:31N 43°24' E 004°59'0 0.0
2016-Feb-08 10:31N 43°24' E 004°59'0 0.0
2016-Feb-08 09:25N 43°24' E 004°59'0 0.0
2016-Feb-08 08:31N 43°24' E 004°59'0 0.0
2016-Feb-08 07:31N 43°24' E 004°59'0 0.0
2016-Feb-08 06:31N 43°24' E 004°59'0 0.0
2016-Feb-08 05:31N 43°24' E 004°59'0 0.0
2016-Feb-08 04:31N 43°24' E 004°59'0 0.0
2016-Feb-08 03:31N 43°24' E 004°59'0 0.0
2016-Feb-08 02:31N 43°24' E 004°59'0 0.0
2016-Feb-08 01:31N 43°24' E 004°59'0 0.0
2016-Feb-08 00:31N 43°24' E 004°59'0 0.0
2016-Feb-07 23:31N 43°24' E 004°59'6 0.6
2016-Feb-07 12:32N 43°25' E 004°51'6 6.1
2016-Feb-07 11:30N 43°24' E 004°59'0 0.0
2016-Feb-07 10:33N 43°24' E 004°59'0 0.0
2016-Feb-07 09:33N 43°24' E 004°59'0 0.0
2016-Feb-07 08:33N 43°24' E 004°59'0 0.0
2016-Feb-07 07:33N 43°24' E 004°59'0 0.0
2016-Feb-07 06:33N 43°24' E 004°59'0 0.0
2016-Feb-07 05:33N 43°24' E 004°59'0 0.0
2016-Feb-07 04:33N 43°24' E 004°59'0 0.0
2016-Feb-07 03:33N 43°24' E 004°59'6 4.2
2016-Feb-07 02:10N 43°24' E 004°51'1 0.1
2016-Feb-06 16:08N 43°25' E 004°51'6 9.7
2016-Feb-06 15:29N 43°24' E 004°59'0 0.4
2016-Feb-06 14:33N 43°24' E 004°60'0 0.0
2016-Feb-06 13:33N 43°24' E 004°60'0 0.0
2016-Feb-06 12:33N 43°24' E 004°60'0 0.0
2016-Feb-06 11:33N 43°24' E 004°60'0 0.0
2016-Feb-06 10:33N 43°24' E 004°60'0 0.0
2016-Feb-06 09:33N 43°24' E 004°60'0 0.0
2016-Feb-06 08:33N 43°24' E 004°60'1 0.8
2016-Feb-06 07:32N 43°23' E 004°59'1 0.0
2016-Feb-05 19:30N 43°24' E 004°59'0 0.0
2016-Feb-05 18:33N 43°24' E 004°59'0 0.0
2016-Feb-05 17:33N 43°24' E 004°59'0 0.0
2016-Feb-05 16:33N 43°24' E 004°59'0 0.0
2016-Feb-05 15:30N 43°24' E 004°59'0 0.0
2016-Feb-05 14:30N 43°24' E 004°59'0 0.0
2016-Feb-05 13:30N 43°24' E 004°59'0 0.0
2016-Feb-05 12:33N 43°24' E 004°59'0 0.0
2016-Feb-05 11:33N 43°24' E 004°59'1 0.6
2016-Feb-05 10:28N 43°24' E 004°59'0 0.0
2016-Feb-05 09:31N 43°24' E 004°59'0 0.0
2016-Feb-05 08:31N 43°24' E 004°59'0 0.0
2016-Feb-05 07:31N 43°24' E 004°59'0 0.0
2016-Feb-05 06:31N 43°24' E 004°59'0 0.0
2016-Feb-05 05:31N 43°24' E 004°59'0 0.0
2016-Feb-05 04:31N 43°24' E 004°59'0 0.0
2016-Feb-05 03:25N 43°24' E 004°59'0 0.0
2016-Feb-05 02:31N 43°24' E 004°59'0 0.0
2016-Feb-05 01:31N 43°24' E 004°59'0 0.0
2016-Feb-05 00:31N 43°24' E 004°59'0 0.0
2016-Feb-04 23:31N 43°24' E 004°59'0 0.0
2016-Feb-04 22:31N 43°24' E 004°59'0 0.0
2016-Feb-04 21:31N 43°24' E 004°59'0 0.0
2016-Feb-04 20:31N 43°24' E 004°59'0 0.0
2016-Feb-04 19:31N 43°24' E 004°59'0 0.0
2016-Feb-04 18:28N 43°24' E 004°59'0 0.0
2016-Feb-04 17:31N 43°24' E 004°59'0 0.0
2016-Feb-04 16:31N 43°24' E 004°59'0 0.0
2016-Feb-04 15:31N 43°24' E 004°59'6 6.0
2016-Feb-04 14:32N 43°24' E 004°51'0 0.0
2016-Feb-04 08:14N 43°24' E 004°51'6 8.6
2016-Feb-04 07:33N 43°24' E 004°59'0 0.1
2016-Feb-04 06:32N 43°24' E 004°59'0 0.0
2016-Feb-04 05:32N 43°24' E 004°59'0 0.0
2016-Feb-04 04:32N 43°24' E 004°60'0 0.0
2016-Feb-04 03:32N 43°24' E 004°59'0 0.0
2016-Feb-04 02:32N 43°24' E 004°60'0 0.0
2016-Feb-04 01:32N 43°24' E 004°59'0 0.0
2016-Feb-04 00:32N 43°24' E 004°59'0 0.0
2016-Feb-03 23:32N 43°24' E 004°60'0 0.5
2016-Feb-03 22:31N 43°24' E 004°59'0 0.0
2016-Feb-03 21:31N 43°24' E 004°59'0 0.0
2016-Feb-03 20:31N 43°24' E 004°59'0 0.0
2016-Feb-03 19:31N 43°24' E 004°59'0 0.0
2016-Feb-03 18:31N 43°24' E 004°59'0 0.0
2016-Feb-03 17:31N 43°24' E 004°59'0 0.0
2016-Feb-03 16:31N 43°24' E 004°59'7 2.2
2016-Feb-03 13:32N 43°25' E 004°50'7 0.8
2016-Feb-03 05:32N 43°24' E 004°59'0 0.0
2016-Feb-03 04:32N 43°24' E 004°59'0 0.0
2016-Feb-03 03:29N 43°24' E 004°59'0 0.0
2016-Feb-03 02:32N 43°24' E 004°59'0 0.0
2016-Feb-03 01:29N 43°24' E 004°59'0 0.0
2016-Feb-03 00:32N 43°24' E 004°59'0 0.0
2016-Feb-02 23:29N 43°24' E 004°59'0 0.0
2016-Feb-02 22:11N 43°24' E 004°59'0 0.0
2016-Feb-02 21:29N 43°24' E 004°59'0 0.0
2016-Feb-02 20:32N 43°24' E 004°59'0 0.0
2016-Feb-02 19:11N 43°24' E 004°59'0 0.0
2016-Feb-02 18:23N 43°24' E 004°59'0 0.5
2016-Feb-02 17:31N 43°24' E 004°59'0 0.0
2016-Feb-02 16:28N 43°24' E 004°59'0 0.0
2016-Feb-02 15:31N 43°24' E 004°59'0 0.0
2016-Feb-02 14:31N 43°24' E 004°59'0 0.0
2016-Feb-02 13:31N 43°24' E 004°59'0 0.0
2016-Feb-02 12:31N 43°24' E 004°59'0 0.0
2016-Feb-02 11:28N 43°24' E 004°59'0 0.0
2016-Feb-02 10:19N 43°24' E 004°59'0 0.0
2016-Feb-02 09:31N 43°24' E 004°59'0 0.0
2016-Feb-02 08:31N 43°24' E 004°59'0 0.0
2016-Feb-02 07:28N 43°24' E 004°59'0 0.0
2016-Feb-02 06:31N 43°24' E 004°59'0 0.0
2016-Feb-02 05:31N 43°24' E 004°59'0 0.0
2016-Feb-02 04:31N 43°24' E 004°59'0 0.0
2016-Feb-02 03:28N 43°24' E 004°59'0 0.0
2016-Feb-02 02:31N 43°24' E 004°59'0 0.0
2016-Feb-02 01:31N 43°24' E 004°59'0 0.0
2016-Feb-02 00:31N 43°24' E 004°59'0 0.0
2016-Feb-01 23:31N 43°24' E 004°59'0 0.0
2016-Feb-01 22:31N 43°24' E 004°59'0 0.0
2016-Feb-01 21:31N 43°24' E 004°59'0 0.0
2016-Feb-01 20:31N 43°24' E 004°59'0 0.0
2016-Feb-01 19:31N 43°24' E 004°59'0 0.0
2016-Feb-01 18:28N 43°24' E 004°59'0 0.0
2016-Feb-01 17:31N 43°24' E 004°59'0 0.0
2016-Feb-01 16:28N 43°24' E 004°59'0 0.0
2016-Feb-01 15:31N 43°24' E 004°59'0 0.0
2016-Feb-01 14:31N 43°24' E 004°59'0 0.0
2016-Feb-01 13:28N 43°24' E 004°59'0 0.0
2016-Feb-01 12:31N 43°24' E 004°59'0 0.0
2016-Feb-01 11:25N 43°24' E 004°59'0 0.0
2016-Feb-01 10:31N 43°24' E 004°59'0 0.0
2016-Feb-01 09:31N 43°24' E 004°59'0 0.0
2016-Feb-01 08:31N 43°24' E 004°59'0 0.0
2016-Feb-01 07:31N 43°24' E 004°59'0 0.0
2016-Feb-01 06:31N 43°24' E 004°59'0 0.0
2016-Feb-01 05:31N 43°24' E 004°59'0 0.0
2016-Feb-01 04:31N 43°24' E 004°59'0 0.0
2016-Feb-01 03:31N 43°24' E 004°59'0 0.0
2016-Feb-01 02:31N 43°24' E 004°59'0 0.0
2016-Feb-01 01:31N 43°24' E 004°59'0 0.0
2016-Feb-01 00:31N 43°24' E 004°59'0 0.0
2016-Jan-31 23:28N 43°24' E 004°59'0 0.0
2016-Jan-31 22:31N 43°24' E 004°59'0 0.0
2016-Jan-31 21:31N 43°24' E 004°59'0 0.0
2016-Jan-31 20:31N 43°24' E 004°59'0 0.0
2016-Jan-31 19:31N 43°24' E 004°59'0 0.0
2016-Jan-31 18:31N 43°24' E 004°59'0 0.0
2016-Jan-31 17:31N 43°24' E 004°59'0 0.0
2016-Jan-31 16:28N 43°24' E 004°59'0 0.0
2016-Jan-31 15:31N 43°24' E 004°59'0 0.0
2016-Jan-31 14:31N 43°24' E 004°59'1 1.2
2016-Jan-31 13:31N 43°23' E 004°59'6 1.2
2016-Jan-31 08:26N 43°25' E 004°51'6 6.9
2016-Jan-31 07:31N 43°24' E 004°59'  

Dump ship's entire track history